sensor_id;sensor_type;location;lat;lon;timestamp;pressure;altitude;pressure_sealevel;temperature;humidity
53719;BME280;39616;48.872;9.390;2022-07-09T00:00:07;99462.63;;;12.63;100.00
53719;BME280;39616;48.872;9.390;2022-07-09T00:02:38;99467.00;;;12.64;100.00
53719;BME280;39616;48.872;9.390;2022-07-09T00:05:09;99466.50;;;12.51;100.00
53719;BME280;39616;48.872;9.390;2022-07-09T00:07:40;99472.28;;;12.45;100.00
53719;BME280;39616;48.872;9.390;2022-07-09T00:10:10;99466.91;;;12.35;100.00
53719;BME280;39616;48.872;9.390;2022-07-09T00:12:41;99465.03;;;12.30;100.00
53719;BME280;39616;48.872;9.390;2022-07-09T00:15:12;99477.28;;;12.22;100.00
53719;BME280;39616;48.872;9.390;2022-07-09T00:17:42;99469.66;;;12.24;100.00
53719;BME280;39616;48.872;9.390;2022-07-09T00:20:12;99465.06;;;12.15;100.00
53719;BME280;39616;48.872;9.390;2022-07-09T00:22:43;99471.09;;;12.12;100.00
53719;BME280;39616;48.872;9.390;2022-07-09T00:25:13;99466.47;;;12.07;100.00
53719;BME280;39616;48.872;9.390;2022-07-09T00:27:44;99461.59;;;12.04;100.00
53719;BME280;39616;48.872;9.390;2022-07-09T00:30:14;99461.31;;;12.05;100.00
53719;BME280;39616;48.872;9.390;2022-07-09T00:32:44;99461.84;;;12.13;100.00
53719;BME280;39616;48.872;9.390;2022-07-09T00:35:15;99455.28;;;12.19;100.00
53719;BME280;39616;48.872;9.390;2022-07-09T00:37:45;99455.25;;;12.24;100.00
53719;BME280;39616;48.872;9.390;2022-07-09T00:40:15;99460.47;;;12.10;100.00
53719;BME280;39616;48.872;9.390;2022-07-09T00:42:46;99450.72;;;12.09;100.00
53719;BME280;39616;48.872;9.390;2022-07-09T00:45:16;99457.53;;;12.01;100.00
53719;BME280;39616;48.872;9.390;2022-07-09T00:47:47;99449.97;;;11.93;100.00
53719;BME280;39616;48.872;9.390;2022-07-09T00:50:18;99457.06;;;11.84;100.00
53719;BME280;39616;48.872;9.390;2022-07-09T00:52:49;99446.44;;;11.77;100.00
53719;BME280;39616;48.872;9.390;2022-07-09T00:55:19;99450.25;;;11.76;100.00
53719;BME280;39616;48.872;9.390;2022-07-09T00:57:49;99445.91;;;11.70;100.00
53719;BME280;39616;48.872;9.390;2022-07-09T01:00:20;99438.59;;;11.66;100.00
53719;BME280;39616;48.872;9.390;2022-07-09T01:02:50;99432.63;;;11.64;100.00
53719;BME280;39616;48.872;9.390;2022-07-09T01:05:21;99439.41;;;11.66;100.00
53719;BME280;39616;48.872;9.390;2022-07-09T01:07:52;99439.41;;;11.66;100.00
53719;BME280;39616;48.872;9.390;2022-07-09T01:10:23;99437.50;;;11.67;100.00
53719;BME280;39616;48.872;9.390;2022-07-09T01:12:53;99440.22;;;11.72;100.00
53719;BME280;39616;48.872;9.390;2022-07-09T01:15:25;99435.03;;;11.70;100.00
53719;BME280;39616;48.872;9.390;2022-07-09T01:17:55;99430.72;;;11.69;100.00
53719;BME280;39616;48.872;9.390;2022-07-09T01:20:28;99430.41;;;11.71;100.00
53719;BME280;39616;48.872;9.390;2022-07-09T01:23:02;99430.19;;;11.62;100.00
53719;BME280;39616;48.872;9.390;2022-07-09T01:25:38;99427.22;;;11.64;100.00
53719;BME280;39616;48.872;9.390;2022-07-09T01:28:10;99427.75;;;11.55;100.00
53719;BME280;39616;48.872;9.390;2022-07-09T01:30:41;99424.22;;;11.55;100.00
53719;BME280;39616;48.872;9.390;2022-07-09T01:33:11;99416.34;;;11.58;100.00
53719;BME280;39616;48.872;9.390;2022-07-09T01:35:42;99413.38;;;11.60;100.00
53719;BME280;39616;48.872;9.390;2022-07-09T01:38:13;99410.91;;;11.58;100.00
53719;BME280;39616;48.872;9.390;2022-07-09T01:40:43;99408.19;;;11.64;100.00
53719;BME280;39616;48.872;9.390;2022-07-09T01:43:13;99404.63;;;11.63;100.00
53719;BME280;39616;48.872;9.390;2022-07-09T01:45:44;99404.66;;;11.58;100.00
53719;BME280;39616;48.872;9.390;2022-07-09T01:48:14;99408.47;;;11.57;100.00
53719;BME280;39616;48.872;9.390;2022-07-09T01:50:45;99405.50;;;11.48;100.00
53719;BME280;39616;48.872;9.390;2022-07-09T01:53:15;99403.88;;;11.47;100.00
53719;BME280;39616;48.872;9.390;2022-07-09T01:55:46;99399.28;;;11.43;100.00
53719;BME280;39616;48.872;9.390;2022-07-09T01:58:16;99396.31;;;11.39;100.00
53719;BME280;39616;48.872;9.390;2022-07-09T02:00:46;99390.88;;;11.39;100.00
53719;BME280;39616;48.872;9.390;2022-07-09T02:03:17;99387.59;;;11.37;100.00
53719;BME280;39616;48.872;9.390;2022-07-09T02:05:47;99382.97;;;11.37;100.00
53719;BME280;39616;48.872;9.390;2022-07-09T02:08:18;99383.56;;;11.29;100.00
53719;BME280;39616;48.872;9.390;2022-07-09T02:10:49;99380.06;;;11.24;100.00
53719;BME280;39616;48.872;9.390;2022-07-09T02:13:19;99380.84;;;11.24;100.00
53719;BME280;39616;48.872;9.390;2022-07-09T02:15:50;99385.19;;;11.15;100.00
53719;BME280;39616;48.872;9.390;2022-07-09T02:18:20;99382.50;;;11.10;100.00
53719;BME280;39616;48.872;9.390;2022-07-09T02:20:50;99381.16;;;11.07;100.00
53719;BME280;39616;48.872;9.390;2022-07-09T02:23:22;99384.41;;;11.09;100.00
53719;BME280;39616;48.872;9.390;2022-07-09T02:25:53;99382.78;;;11.13;100.00
53719;BME280;39616;48.872;9.390;2022-07-09T02:28:24;99391.44;;;11.16;100.00
53719;BME280;39616;48.872;9.390;2022-07-09T02:30:54;99387.38;;;11.18;100.00
53719;BME280;39616;48.872;9.390;2022-07-09T02:33:25;99384.41;;;11.20;100.00
53719;BME280;39616;48.872;9.390;2022-07-09T02:35:55;99383.31;;;11.21;100.00
53719;BME280;39616;48.872;9.390;2022-07-09T02:38:26;99374.09;;;11.17;100.00
53719;BME280;39616;48.872;9.390;2022-07-09T02:40:56;99386.31;;;11.14;100.00
53719;BME280;39616;48.872;9.390;2022-07-09T02:43:27;99392.00;;;11.07;100.00
53719;BME280;39616;48.872;9.390;2022-07-09T02:45:57;99390.13;;;11.03;100.00
53719;BME280;39616;48.872;9.390;2022-07-09T02:48:28;99390.38;;;10.96;100.00
53719;BME280;39616;48.872;9.390;2022-07-09T02:50:58;99388.50;;;10.92;100.00
53719;BME280;39616;48.872;9.390;2022-07-09T02:53:30;99387.94;;;10.89;100.00
53719;BME280;39616;48.872;9.390;2022-07-09T02:56:01;99384.16;;;10.80;100.00
53719;BME280;39616;48.872;9.390;2022-07-09T02:58:31;99392.81;;;10.82;100.00
53719;BME280;39616;48.872;9.390;2022-07-09T03:01:02;99388.50;;;10.81;100.00
53719;BME280;39616;48.872;9.390;2022-07-09T03:03:35;99393.66;;;10.78;100.00
53719;BME280;39616;48.872;9.390;2022-07-09T03:06:05;99395.53;;;10.82;100.00
53719;BME280;39616;48.872;9.390;2022-07-09T03:08:38;99396.91;;;10.85;100.00
53719;BME280;39616;48.872;9.390;2022-07-09T03:11:09;99395.53;;;10.93;100.00
53719;BME280;39616;48.872;9.390;2022-07-09T03:13:39;99392.03;;;10.97;100.00
53719;BME280;39616;48.872;9.390;2022-07-09T03:16:09;99398.81;;;10.95;100.00
53719;BME280;39616;48.872;9.390;2022-07-09T03:18:41;99396.66;;;10.92;100.00
53719;BME280;39616;48.872;9.390;2022-07-09T03:21:12;99405.31;;;10.88;100.00
53719;BME280;39616;48.872;9.390;2022-07-09T03:23:42;99399.63;;;10.85;100.00
53719;BME280;39616;48.872;9.390;2022-07-09T03:26:13;99405.59;;;10.87;100.00
53719;BME280;39616;48.872;9.390;2022-07-09T03:28:43;99400.97;;;10.82;100.00
53719;BME280;39616;48.872;9.390;2022-07-09T03:31:13;99410.22;;;10.76;100.00
53719;BME280;39616;48.872;9.390;2022-07-09T03:33:43;99409.66;;;10.69;100.00
53719;BME280;39616;48.872;9.390;2022-07-09T03:36:14;99411.84;;;10.72;100.00
53719;BME280;39616;48.872;9.390;2022-07-09T03:38:45;99406.94;;;10.64;100.00
53719;BME280;39616;48.872;9.390;2022-07-09T03:41:15;99404.50;;;10.62;100.00
53719;BME280;39616;48.872;9.390;2022-07-09T03:43:45;99409.41;;;10.66;100.00
53719;BME280;39616;48.872;9.390;2022-07-09T03:46:16;99417.53;;;10.60;100.00
53719;BME280;39616;48.872;9.390;2022-07-09T03:48:46;99412.13;;;10.60;100.00
53719;BME280;39616;48.872;9.390;2022-07-09T03:51:19;99403.97;;;10.66;100.00
53719;BME280;39616;48.872;9.390;2022-07-09T03:53:49;99398.53;;;10.66;100.00
53719;BME280;39616;48.872;9.390;2022-07-09T03:56:19;99408.06;;;10.68;100.00
53719;BME280;39616;48.872;9.390;2022-07-09T03:58:53;99408.03;;;10.73;100.00
53719;BME280;39616;48.872;9.390;2022-07-09T04:01:23;99409.41;;;10.76;100.00
53719;BME280;39616;48.872;9.390;2022-07-09T04:03:53;99411.56;;;10.84;100.00
53719;BME280;39616;48.872;9.390;2022-07-09T04:06:24;99411.03;;;10.87;100.00
53719;BME280;39616;48.872;9.390;2022-07-09T04:08:55;99406.97;;;10.95;100.00
53719;BME280;39616;48.872;9.390;2022-07-09T04:11:25;99403.13;;;11.01;100.00
53719;BME280;39616;48.872;9.390;2022-07-09T04:13:55;99408.84;;;11.09;100.00
53719;BME280;39616;48.872;9.390;2022-07-09T04:16:26;99404.22;;;11.10;100.00
53719;BME280;39616;48.872;9.390;2022-07-09T04:18:56;99398.78;;;11.15;100.00
53719;BME280;39616;48.872;9.390;2022-07-09T04:21:27;99402.88;;;11.12;100.00
53719;BME280;39616;48.872;9.390;2022-07-09T04:23:57;99395.25;;;11.15;100.00
53719;BME280;39616;48.872;9.390;2022-07-09T04:26:27;99402.84;;;11.23;100.00
53719;BME280;39616;48.872;9.390;2022-07-09T04:28:58;99400.66;;;11.25;100.00
53719;BME280;39616;48.872;9.390;2022-07-09T04:31:28;99402.84;;;11.28;100.00
53719;BME280;39616;48.872;9.390;2022-07-09T04:33:58;99391.16;;;11.32;100.00
53719;BME280;39616;48.872;9.390;2022-07-09T04:36:30;99415.03;;;11.41;100.00
53719;BME280;39616;48.872;9.390;2022-07-09T04:39:01;99412.25;;;11.56;100.00
53719;BME280;39616;48.872;9.390;2022-07-09T04:41:31;99410.34;;;11.72;100.00
53719;BME280;39616;48.872;9.390;2022-07-09T04:44:02;99408.66;;;11.81;100.00
53719;BME280;39616;48.872;9.390;2022-07-09T04:46:33;99405.63;;;11.93;100.00
53719;BME280;39616;48.872;9.390;2022-07-09T04:49:03;99406.13;;;12.05;100.00
53719;BME280;39616;48.872;9.390;2022-07-09T04:51:33;99407.16;;;12.19;100.00
53719;BME280;39616;48.872;9.390;2022-07-09T04:54:04;99407.31;;;12.38;100.00
53719;BME280;39616;48.872;9.390;2022-07-09T04:56:34;99403.94;;;12.51;100.00
53719;BME280;39616;48.872;9.390;2022-07-09T04:59:04;99411.22;;;12.61;100.00
53719;BME280;39616;48.872;9.390;2022-07-09T05:01:35;99416.56;;;12.76;100.00
53719;BME280;39616;48.872;9.390;2022-07-09T05:04:05;99414.50;;;12.92;100.00
53719;BME280;39616;48.872;9.390;2022-07-09T05:06:35;99410.91;;;13.02;100.00
53719;BME280;39616;48.872;9.390;2022-07-09T05:09:06;99409.72;;;13.13;100.00
53719;BME280;39616;48.872;9.390;2022-07-09T05:11:36;99411.75;;;13.32;100.00
53719;BME280;39616;48.872;9.390;2022-07-09T05:14:06;99412.38;;;13.47;100.00
53719;BME280;39616;48.872;9.390;2022-07-09T05:16:37;99409.53;;;13.63;100.00
53719;BME280;39616;48.872;9.390;2022-07-09T05:19:13;99411.03;;;13.74;100.00
53719;BME280;39616;48.872;9.390;2022-07-09T05:21:43;99414.66;;;13.88;100.00
53719;BME280;39616;48.872;9.390;2022-07-09T05:24:14;99407.16;;;13.99;100.00
53719;BME280;39616;48.872;9.390;2022-07-09T05:26:44;99402.75;;;14.03;100.00
53719;BME280;39616;48.872;9.390;2022-07-09T05:29:14;99408.88;;;14.14;100.00
53719;BME280;39616;48.872;9.390;2022-07-09T05:31:45;99411.19;;;14.25;100.00
53719;BME280;39616;48.872;9.390;2022-07-09T05:34:16;99403.22;;;14.29;100.00
53719;BME280;39616;48.872;9.390;2022-07-09T05:36:46;99404.97;;;14.39;100.00
53719;BME280;39616;48.872;9.390;2022-07-09T05:39:17;99403.16;;;14.53;100.00
53719;BME280;39616;48.872;9.390;2022-07-09T05:41:47;99403.94;;;14.72;100.00
53719;BME280;39616;48.872;9.390;2022-07-09T05:44:18;99399.66;;;14.85;100.00
53719;BME280;39616;48.872;9.390;2022-07-09T05:46:48;99388.47;;;15.01;100.00
53719;BME280;39616;48.872;9.390;2022-07-09T05:49:19;99391.94;;;15.20;100.00
53719;BME280;39616;48.872;9.390;2022-07-09T05:51:49;99390.75;;;15.26;97.97
53719;BME280;39616;48.872;9.390;2022-07-09T05:54:19;99394.41;;;15.21;94.77
53719;BME280;39616;48.872;9.390;2022-07-09T05:56:50;99390.97;;;15.30;97.18
53719;BME280;39616;48.872;9.390;2022-07-09T05:59:21;99386.59;;;15.42;95.31
53719;BME280;39616;48.872;9.390;2022-07-09T06:01:51;99391.28;;;15.56;93.01
53719;BME280;39616;48.872;9.390;2022-07-09T06:04:21;99383.59;;;15.72;92.80
53719;BME280;39616;48.872;9.390;2022-07-09T06:06:52;99395.28;;;15.91;92.63
53719;BME280;39616;48.872;9.390;2022-07-09T06:09:22;99391.81;;;15.99;89.88
53719;BME280;39616;48.872;9.390;2022-07-09T06:11:52;99394.22;;;16.14;91.14
53719;BME280;39616;48.872;9.390;2022-07-09T06:14:23;99387.03;;;16.41;90.18
53719;BME280;39616;48.872;9.390;2022-07-09T06:16:53;99390.59;;;16.64;90.09
53719;BME280;39616;48.872;9.390;2022-07-09T06:19:25;99386.47;;;16.89;87.57
53719;BME280;39616;48.872;9.390;2022-07-09T06:21:55;99385.28;;;17.04;86.49
53719;BME280;39616;48.872;9.390;2022-07-09T06:24:26;99385.19;;;17.18;85.73
53719;BME280;39616;48.872;9.390;2022-07-09T06:26:57;99379.81;;;17.35;83.81
53719;BME280;39616;48.872;9.390;2022-07-09T06:29:27;99376.94;;;17.49;83.37
53719;BME280;39616;48.872;9.390;2022-07-09T06:31:57;99382.75;;;17.47;87.40
53719;BME280;39616;48.872;9.390;2022-07-09T06:34:30;99380.72;;;17.61;85.08
53719;BME280;39616;48.872;9.390;2022-07-09T06:37:01;99379.81;;;17.35;84.83
53719;BME280;39616;48.872;9.390;2022-07-09T06:39:31;99383.78;;;17.60;84.39
53719;BME280;39616;48.872;9.390;2022-07-09T06:42:18;99374.59;;;18.22;79.87
53719;BME280;39616;48.872;9.390;2022-07-09T06:44:48;99373.66;;;18.52;80.82
53719;BME280;39616;48.872;9.390;2022-07-09T06:47:18;99368.47;;;18.68;79.05
53719;BME280;39616;48.872;9.390;2022-07-09T06:49:48;99371.72;;;18.79;78.98
53719;BME280;39616;48.872;9.390;2022-07-09T06:52:19;99372.69;;;18.74;76.00
53719;BME280;39616;48.872;9.390;2022-07-09T06:54:49;99367.63;;;18.59;76.27
53719;BME280;39616;48.872;9.390;2022-07-09T06:57:20;99370.09;;;18.61;76.05
53719;BME280;39616;48.872;9.390;2022-07-09T06:59:50;99369.44;;;18.81;75.05
53719;BME280;39616;48.872;9.390;2022-07-09T07:02:20;99360.53;;;19.48;74.72
53719;BME280;39616;48.872;9.390;2022-07-09T07:04:53;99370.13;;;19.72;74.40
53719;BME280;39616;48.872;9.390;2022-07-09T07:07:23;99363.47;;;19.35;73.33
53719;BME280;39616;48.872;9.390;2022-07-09T07:09:54;99367.81;;;19.44;74.64
53719;BME280;39616;48.872;9.390;2022-07-09T07:12:24;99364.53;;;19.51;75.91
53719;BME280;39616;48.872;9.390;2022-07-09T07:14:54;99366.16;;;19.52;75.24
53719;BME280;39616;48.872;9.390;2022-07-09T07:17:25;99366.19;;;19.43;75.81
53719;BME280;39616;48.872;9.390;2022-07-09T07:19:55;99365.84;;;19.53;76.16
53719;BME280;39616;48.872;9.390;2022-07-09T07:22:26;99370.53;;;19.53;74.95
53719;BME280;39616;48.872;9.390;2022-07-09T07:24:56;99372.28;;;19.58;76.64
53719;BME280;39616;48.872;9.390;2022-07-09T07:27:26;99359.63;;;19.74;75.28
53719;BME280;39616;48.872;9.390;2022-07-09T07:29:57;99360.00;;;19.93;72.87
53719;BME280;39616;48.872;9.390;2022-07-09T07:32:27;99358.66;;;19.99;72.41
53719;BME280;39616;48.872;9.390;2022-07-09T07:34:57;99366.41;;;20.48;70.11
53719;BME280;39616;48.872;9.390;2022-07-09T07:37:28;99357.56;;;21.09;68.80
53719;BME280;39616;48.872;9.390;2022-07-09T07:39:58;99359.00;;;20.82;67.66
53719;BME280;39616;48.872;9.390;2022-07-09T07:42:29;99360.56;;;21.16;66.47
53719;BME280;39616;48.872;9.390;2022-07-09T07:44:59;99352.84;;;21.67;65.65
53719;BME280;39616;48.872;9.390;2022-07-09T07:47:29;99355.81;;;21.37;64.69
53719;BME280;39616;48.872;9.390;2022-07-09T07:50:00;99361.56;;;21.57;63.80
53719;BME280;39616;48.872;9.390;2022-07-09T07:52:31;99356.63;;;21.99;62.65
53719;BME280;39616;48.872;9.390;2022-07-09T07:55:01;99358.06;;;22.33;62.46
53719;BME280;39616;48.872;9.390;2022-07-09T07:57:31;99348.88;;;23.29;59.44
53719;BME280;39616;48.872;9.390;2022-07-09T08:00:03;99353.00;;;23.35;57.67
53719;BME280;39616;48.872;9.390;2022-07-09T08:02:34;99357.78;;;23.07;58.23
53719;BME280;39616;48.872;9.390;2022-07-09T08:05:05;99355.47;;;22.81;59.81
53719;BME280;39616;48.872;9.390;2022-07-09T08:07:36;99356.91;;;23.50;58.61
53719;BME280;39616;48.872;9.390;2022-07-09T08:10:07;99353.78;;;23.83;55.71
53719;BME280;39616;48.872;9.390;2022-07-09T08:12:37;99357.00;;;23.38;56.11
53719;BME280;39616;48.872;9.390;2022-07-09T08:15:08;99351.19;;;23.91;54.85
53719;BME280;39616;48.872;9.390;2022-07-09T08:17:38;99342.09;;;23.90;54.54
53719;BME280;39616;48.872;9.390;2022-07-09T08:20:10;99346.03;;;23.57;56.28
53719;BME280;39616;48.872;9.390;2022-07-09T08:22:40;99347.97;;;23.89;54.68
53719;BME280;39616;48.872;9.390;2022-07-09T08:25:10;99343.25;;;24.44;55.16
53719;BME280;39616;48.872;9.390;2022-07-09T08:27:41;99341.41;;;23.97;56.63
53719;BME280;39616;48.872;9.390;2022-07-09T08:30:12;99340.72;;;24.54;55.23
53719;BME280;39616;48.872;9.390;2022-07-09T08:32:42;99334.16;;;25.05;51.46
53719;BME280;39616;48.872;9.390;2022-07-09T08:35:12;99332.38;;;24.93;54.00
53719;BME280;39616;48.872;9.390;2022-07-09T08:37:42;99329.84;;;24.46;53.25
53719;BME280;39616;48.872;9.390;2022-07-09T08:40:13;99333.53;;;23.32;57.06
53719;BME280;39616;48.872;9.390;2022-07-09T08:42:43;99335.50;;;23.79;56.86
53719;BME280;39616;48.872;9.390;2022-07-09T08:45:16;99323.38;;;24.22;54.60
53719;BME280;39616;48.872;9.390;2022-07-09T08:47:47;99326.25;;;23.91;54.58
53719;BME280;39616;48.872;9.390;2022-07-09T08:50:17;99314.63;;;25.21;52.84
53719;BME280;39616;48.872;9.390;2022-07-09T08:52:51;99302.53;;;25.56;50.75
53719;BME280;39616;48.872;9.390;2022-07-09T08:55:21;99310.63;;;25.41;49.37
53719;BME280;39616;48.872;9.390;2022-07-09T08:57:52;99313.03;;;25.20;49.75
53719;BME280;39616;48.872;9.390;2022-07-09T09:00:23;99304.31;;;25.94;49.44
53719;BME280;39616;48.872;9.390;2022-07-09T09:02:53;99305.19;;;26.32;46.83
53719;BME280;39616;48.872;9.390;2022-07-09T09:05:23;99297.59;;;26.29;47.79
53719;BME280;39616;48.872;9.390;2022-07-09T09:07:54;99303.78;;;24.93;49.60
53719;BME280;39616;48.872;9.390;2022-07-09T09:10:26;99305.38;;;25.13;49.24
53719;BME280;39616;48.872;9.390;2022-07-09T09:15:29;99293.19;;;24.75;49.07
53719;BME280;39616;48.872;9.390;2022-07-09T09:17:59;99292.41;;;24.55;48.98
53719;BME280;39616;48.872;9.390;2022-07-09T09:20:29;99289.75;;;25.51;47.39
53719;BME280;39616;48.872;9.390;2022-07-09T09:23:02;99278.91;;;25.69;46.95
53719;BME280;39616;48.872;9.390;2022-07-09T09:25:34;99283.06;;;24.64;49.46
53719;BME280;39616;48.872;9.390;2022-07-09T09:28:05;99265.75;;;25.39;48.37
53719;BME280;39616;48.872;9.390;2022-07-09T09:30:41;99268.72;;;25.50;47.98
53719;BME280;39616;48.872;9.390;2022-07-09T09:33:15;99284.75;;;25.87;48.64
53719;BME280;39616;48.872;9.390;2022-07-09T09:35:48;99282.88;;;25.94;46.60
53719;BME280;39616;48.872;9.390;2022-07-09T09:38:22;99283.59;;;26.21;44.92
53719;BME280;39616;48.872;9.390;2022-07-09T09:40:53;99272.56;;;26.96;43.54
53719;BME280;39616;48.872;9.390;2022-07-09T09:43:24;99269.28;;;27.31;42.82
53719;BME280;39616;48.872;9.390;2022-07-09T09:45:58;99278.09;;;26.92;44.35
53719;BME280;39616;48.872;9.390;2022-07-09T09:48:29;99274.97;;;26.60;44.07
53719;BME280;39616;48.872;9.390;2022-07-09T09:51:00;99282.41;;;26.49;44.46
53719;BME280;39616;48.872;9.390;2022-07-09T09:53:31;99272.22;;;26.64;43.20
53719;BME280;39616;48.872;9.390;2022-07-09T09:56:02;99274.28;;;26.37;43.90
53719;BME280;39616;48.872;9.390;2022-07-09T09:58:33;99270.69;;;26.66;43.50
53719;BME280;39616;48.872;9.390;2022-07-09T10:01:03;99278.16;;;25.72;44.68
53719;BME280;39616;48.872;9.390;2022-07-09T10:03:34;99270.56;;;25.95;44.11
53719;BME280;39616;48.872;9.390;2022-07-09T10:06:05;99267.63;;;25.58;45.64
53719;BME280;39616;48.872;9.390;2022-07-09T10:08:35;99266.22;;;25.41;45.96
53719;BME280;39616;48.872;9.390;2022-07-09T10:11:06;99267.06;;;25.72;45.77
53719;BME280;39616;48.872;9.390;2022-07-09T10:13:56;99256.78;;;27.11;42.41
53719;BME280;39616;48.872;9.390;2022-07-09T10:16:39;99249.88;;;26.94;43.01
53719;BME280;39616;48.872;9.390;2022-07-09T10:19:10;99243.25;;;27.61;42.14
53719;BME280;39616;48.872;9.390;2022-07-09T10:21:41;99257.28;;;26.79;42.79
53719;BME280;39616;48.872;9.390;2022-07-09T10:24:23;99262.59;;;24.49;46.32
53719;BME280;39616;48.872;9.390;2022-07-09T10:29:36;99253.66;;;25.51;43.18
53719;BME280;39616;48.872;9.390;2022-07-09T10:32:24;99250.00;;;25.20;41.91
53719;BME280;39616;48.872;9.390;2022-07-09T10:34:59;99247.53;;;25.38;41.64
53719;BME280;39616;48.872;9.390;2022-07-09T10:40:15;99238.59;;;27.20;39.49
53719;BME280;39616;48.872;9.390;2022-07-09T10:43:00;99239.88;;;27.96;38.72
53719;BME280;39616;48.872;9.390;2022-07-09T10:48:05;99252.31;;;26.99;40.83
53719;BME280;39616;48.872;9.390;2022-07-09T10:50:42;99250.25;;;26.92;40.11
53719;BME280;39616;48.872;9.390;2022-07-09T10:53:13;99233.56;;;28.06;38.89
53719;BME280;39616;48.872;9.390;2022-07-09T10:55:44;99233.59;;;28.13;38.68
53719;BME280;39616;48.872;9.390;2022-07-09T10:58:18;99233.72;;;27.62;40.76
53719;BME280;39616;48.872;9.390;2022-07-09T11:01:01;99224.41;;;28.13;39.21
53719;BME280;39616;48.872;9.390;2022-07-09T11:03:35;99243.84;;;26.85;40.53
53719;BME280;39616;48.872;9.390;2022-07-09T11:06:08;99243.72;;;25.50;42.18
53719;BME280;39616;48.872;9.390;2022-07-09T11:08:38;99233.25;;;25.40;42.44
53719;BME280;39616;48.872;9.390;2022-07-09T11:11:08;99245.78;;;24.84;45.01
53719;BME280;39616;48.872;9.390;2022-07-09T11:13:39;99229.84;;;25.00;46.30
53719;BME280;39616;48.872;9.390;2022-07-09T11:16:09;99231.22;;;25.37;45.08
53719;BME280;39616;48.872;9.390;2022-07-09T11:18:39;99217.72;;;25.62;43.23
53719;BME280;39616;48.872;9.390;2022-07-09T11:21:10;99229.25;;;25.64;42.91
53719;BME280;39616;48.872;9.390;2022-07-09T11:23:47;99222.06;;;26.19;42.36
53719;BME280;39616;48.872;9.390;2022-07-09T11:26:19;99212.97;;;26.22;41.60
53719;BME280;39616;48.872;9.390;2022-07-09T11:28:50;99201.34;;;27.43;39.70
53719;BME280;39616;48.872;9.390;2022-07-09T11:31:22;99197.44;;;27.00;37.87
53719;BME280;39616;48.872;9.390;2022-07-09T11:33:52;99201.97;;;27.77;37.02
53719;BME280;39616;48.872;9.390;2022-07-09T11:36:43;99192.69;;;28.68;36.88
53719;BME280;39616;48.872;9.390;2022-07-09T11:39:29;99190.13;;;27.25;37.43
53719;BME280;39616;48.872;9.390;2022-07-09T11:42:01;99199.00;;;26.53;39.25
53719;BME280;39616;48.872;9.390;2022-07-09T11:44:32;99200.94;;;25.81;41.94
53719;BME280;39616;48.872;9.390;2022-07-09T11:47:10;99198.50;;;25.23;43.69
53719;BME280;39616;48.872;9.390;2022-07-09T11:49:42;99196.06;;;24.95;44.96
53719;BME280;39616;48.872;9.390;2022-07-09T11:55:04;99187.72;;;24.95;46.90
53719;BME280;39616;48.872;9.390;2022-07-09T11:57:37;99197.25;;;24.71;47.36
53719;BME280;39616;48.872;9.390;2022-07-09T12:00:20;99187.69;;;24.68;48.82
53719;BME280;39616;48.872;9.390;2022-07-09T12:02:50;99197.47;;;24.39;48.34
53719;BME280;39616;48.872;9.390;2022-07-09T12:05:26;99185.75;;;24.30;47.70
53719;BME280;39616;48.872;9.390;2022-07-09T12:07:59;99192.94;;;24.11;47.98
53719;BME280;39616;48.872;9.390;2022-07-09T12:10:31;99182.50;;;24.44;48.85
53719;BME280;39616;48.872;9.390;2022-07-09T12:13:03;99179.44;;;24.49;48.23
53719;BME280;39616;48.872;9.390;2022-07-09T12:15:35;99185.44;;;23.73;49.63
53719;BME280;39616;48.872;9.390;2022-07-09T12:18:05;99175.50;;;24.11;48.67
53719;BME280;39616;48.872;9.390;2022-07-09T12:20:35;99167.03;;;24.66;48.63
53719;BME280;39616;48.872;9.390;2022-07-09T12:23:06;99166.75;;;25.20;45.22
53719;BME280;39616;48.872;9.390;2022-07-09T12:25:37;99160.38;;;24.93;46.32
53719;BME280;39616;48.872;9.390;2022-07-09T12:28:07;99164.81;;;25.24;45.84
53719;BME280;39616;48.872;9.390;2022-07-09T12:30:37;99166.19;;;25.11;46.51
53719;BME280;39616;48.872;9.390;2022-07-09T12:33:07;99147.28;;;25.47;44.75
53719;BME280;39616;48.872;9.390;2022-07-09T12:35:38;99146.53;;;25.50;44.97
53719;BME280;39616;48.872;9.390;2022-07-09T12:38:08;99140.88;;;25.73;43.63
53719;BME280;39616;48.872;9.390;2022-07-09T12:40:38;99134.91;;;26.01;43.33
53719;BME280;39616;48.872;9.390;2022-07-09T12:43:09;99135.13;;;25.85;45.39
53719;BME280;39616;48.872;9.390;2022-07-09T12:45:39;99132.47;;;25.99;44.93
53719;BME280;39616;48.872;9.390;2022-07-09T12:48:09;99127.78;;;25.73;44.20
53719;BME280;39616;48.872;9.390;2022-07-09T12:50:40;99121.47;;;25.76;43.05
53719;BME280;39616;48.872;9.390;2022-07-09T12:53:10;99121.28;;;25.89;42.17
53719;BME280;39616;48.872;9.390;2022-07-09T12:55:41;99117.59;;;26.15;42.91
53719;BME280;39616;48.872;9.390;2022-07-09T12:58:11;99111.69;;;26.64;45.71
53719;BME280;39616;48.872;9.390;2022-07-09T13:00:41;99102.16;;;26.65;41.28
53719;BME280;39616;48.872;9.390;2022-07-09T13:03:12;99108.09;;;26.19;41.61
53719;BME280;39616;48.872;9.390;2022-07-09T13:05:42;99100.00;;;26.44;41.96
53719;BME280;39616;48.872;9.390;2022-07-09T13:08:12;99100.72;;;26.82;42.12
53719;BME280;39616;48.872;9.390;2022-07-09T13:10:43;99085.28;;;27.68;41.37
53719;BME280;39616;48.872;9.390;2022-07-09T13:13:13;99092.53;;;27.77;40.42
53719;BME280;39616;48.872;9.390;2022-07-09T13:15:45;99090.94;;;27.86;40.64
53719;BME280;39616;48.872;9.390;2022-07-09T13:18:15;99086.56;;;27.82;39.77
53719;BME280;39616;48.872;9.390;2022-07-09T13:20:47;99089.16;;;27.42;39.94
53719;BME280;39616;48.872;9.390;2022-07-09T13:23:18;99094.09;;;25.75;41.59
53719;BME280;39616;48.872;9.390;2022-07-09T13:25:48;99089.19;;;25.95;41.73
53719;BME280;39616;48.872;9.390;2022-07-09T13:28:19;99084.56;;;26.10;40.00